EDT,Max TemperatureF,Mean TemperatureF,Min TemperatureF,Max Dew PointF,MeanDew PointF,Min DewpointF,Max Humidity, Mean Humidity, Min Humidity, Max Sea Level PressureIn, Mean Sea Level PressureIn, Min Sea Level PressureIn, Max VisibilityMiles, Mean VisibilityMiles, Min VisibilityMiles, Max Wind SpeedMPH, Mean Wind SpeedMPH, Max Gust SpeedMPH,PrecipitationIn, CloudCover, Events, WindDirDegrees
2013-7-1,73,68,63,66,64,60,100,88,76,30.01,29.95,29.86,10,5,0,12,5,15,0.21,7,Fog-Rain-Thunderstorm,81
2013-7-2,77,71,64,67,65,63,93,81,69,30.13,30.07,29.98,10,7,0,14,7,20,0.01,4,Fog-Rain-Thunderstorm,181
2013-7-3,80,73,65,69,64,62,90,76,62,30.27,30.21,30.13,10,10,4,13,6,17,0.07,5,Rain-Thunderstorm,181
2013-7-4,81,74,66,67,64,62,93,76,58,30.30,30.23,30.18,10,10,10,13,7,16,T,4,Rain-Thunderstorm,201
2013-7-5,82,74,66,66,64,62,90,72,54,30.26,30.20,30.14,10,9,1,23,7,30,0.17,3,Rain-Thunderstorm,207
2013-7-6,83,74,65,67,66,63,100,77,54,30.27,30.20,30.09,10,10,6,14,6,20,0.00,3,,206
2013-7-7,78,71,64,67,64,61,93,76,58,30.18,30.12,30.06,10,9,0,25,6,37,0.36,5,Fog-Rain-Thunderstorm,248
2013-7-8,75,69,63,65,62,59,100,81,61,30.19,30.14,30.10,10,7,2,17,6,24,0.01,6,Rain,252
2013-7-9,76,71,65,68,65,63,93,86,79,30.16,30.11,30.04,10,6,2,15,7,29,0.05,7,Rain,224
2013-7-10,80,71,62,69,64,61,100,86,71,30.09,30.01,29.89,10,6,0,32,9,43,1.05,7,Fog-Rain,247
2013-7-11,73,67,60,63,60,53,93,73,53,30.03,29.98,29.90,10,6,0,12,6,17,0.01,6,Fog,295
2013-7-12,69,63,56,61,58,53,93,83,73,30.14,30.08,30.00,10,10,9,12,5,15,0.00,4,,47
2013-7-13,75,68,60,64,61,59,100,84,68,30.31,30.19,30.13,10,7,0,13,5,16,0.00,7,Fog,80
2013-7-14,81,74,67,65,64,62,93,74,54,30.40,30.33,30.30,10,10,8,17,9,23,0.00,2,,165
2013-7-15,84,75,66,66,64,62,87,69,51,30.38,30.34,30.29,10,10,10,13,6,20,0.00,1,,267
2013-7-16,85,77,69,70,66,62,90,69,48,30.35,30.31,30.27,10,10,8,14,6,20,T,2,,310
2013-7-17,85,77,68,70,68,65,97,76,55,30.38,30.30,30.20,10,5,0,15,4,18,0.00,2,Fog,306
2013-7-18,87,78,69,70,68,66,97,74,51,30.25,30.17,30.08,10,6,2,10,4,15,0.00,2,,260
2013-7-19,85,77,69,72,68,65,93,74,55,30.11,30.02,29.93,10,6,1,18,9,23,0.16,2,Rain-Thunderstorm,241
2013-7-20,77,72,66,67,65,62,90,77,64,29.99,29.93,29.88,10,8,2,17,10,28,0.03,4,Rain-Thunderstorm,252
2013-7-21,79,72,64,65,63,61,93,75,56,30.05,30.00,29.94,10,8,4,8,3,10,T,5,,225
2013-7-22,75,70,64,70,65,62,97,85,73,29.99,29.90,29.81,10,7,1,14,3,20,0.27,5,Rain-Thunderstorm,156
2013-7-23,76,68,60,64,63,57,100,80,60,29.83,29.79,29.73,10,4,0,17,9,21,0.05,6,Fog-Rain,258
2013-7-24,67,61,54,61,54,49,97,77,56,30.01,29.87,29.75,10,8,0,15,8,20,0.01,5,Fog-Rain,321
2013-7-25,70,59,48,50,48,47,96,72,47,30.13,30.06,30.01,10,10,10,12,4,28,0.00,1,,54
2013-7-26,75,62,49,54,49,45,93,64,35,30.13,30.09,30.06,10,10,10,10,4,16,0.00,0,,197
2013-7-27,71,65,59,63,60,52,93,80,67,30.05,29.97,29.92,10,9,5,16,7,23,0.07,5,Rain-Thunderstorm,181
2013-7-28,73,65,56,61,56,47,93,67,41,30.06,29.95,29.90,10,9,2,16,8,23,0.09,5,Rain,239
2013-7-29,69,60,50,52,50,47,89,71,52,30.22,30.13,30.06,10,10,10,17,7,24,0.00,4,,250
2013-7-30,71,62,52,53,51,50,89,71,53,30.27,30.23,30.19,10,10,10,12,4,17,0.00,2,,272
2013-7-31,75,65,54,60,55,51,87,67,46,30.20,30.12,30.00,10,10,8,13,4,16,0.00,2,,189